This is the latest recevied weather packets stored in our database for station/object DC1MBB-9. If no packets are shown the sender has not sent any weather packets the latest 10 day(s).
| Time | Temp. | Humidity | Pressure | Rain* | Wind** | Luminosity | Snow |
|---|---|---|---|---|---|---|---|
| 1777701004 | 11.11° C | 59% | 965 hPa | - | - | - | - |
| 1777700644 | 10.56° C | 60% | 966 hPa | - | - | - | - |
| 1777700283 | 10° C | 61% | 966 hPa | - | - | - | - |
| 1777699922 | 9.44° C | 63% | 966 hPa | - | - | - | - |
| 1777699562 | 10° C | 63% | 966 hPa | - | - | - | - |
| 1777699201 | 9.44° C | 67% | 966 hPa | - | - | - | - |
| 1777698840 | 9.44° C | 69% | 965 hPa | - | - | - | - |
| 1777698479 | 8.89° C | 69% | 966 hPa | - | - | - | - |
| 1777698119 | 8.89° C | 67% | 966 hPa | - | - | - | - |
| 1777697758 | 8.33° C | 68% | 966 hPa | - | - | - | - |
| 1777697397 | 8.33° C | 68% | 966 hPa | - | - | - | - |
| 1777696675 | 8.33° C | 68% | 966 hPa | - | - | - | - |
| 1777695954 | 8.33° C | 67% | 965 hPa | - | - | - | - |
| 1777695593 | 8.33° C | 65% | 965 hPa | - | - | - | - |
| 1777695233 | 7.78° C | 66% | 965 hPa | - | - | - | - |
| 1777694872 | 8.33° C | 66% | 965 hPa | - | - | - | - |
| 1777694511 | 7.78° C | 67% | 965 hPa | - | - | - | - |
| 1777694150 | 8.89° C | 65% | 965 hPa | - | - | - | - |
| 1777693790 | 8.33° C | 65% | 965 hPa | - | - | - | - |
| 1777693429 | 8.89° C | 65% | 965 hPa | - | - | - | - |
| 1777693068 | 8.33° C | 66% | 965 hPa | - | - | - | - |
| 1777692707 | 8.33° C | 66% | 965 hPa | - | - | - | - |
| 1777691986 | 8.89° C | 65% | 966 hPa | - | - | - | - |
| 1777691625 | 8.33° C | 66% | 965 hPa | - | - | - | - |
| 1777691264 | 8.89° C | 63% | 965 hPa | - | - | - | - |
* Rain since midnight (hover to see other rain measurements)
** Current wind speed in m/s (hover to see current wind gust speed)